createdAt,value
2017-05-12T00:01:58.829Z,78.10
2017-05-12T00:04:27.472Z,78.20
2017-05-12T00:06:55.730Z,78.20
2017-05-12T00:09:23.997Z,78.40
2017-05-12T00:11:53.013Z,78.30
2017-05-12T00:14:21.658Z,78.20
2017-05-12T00:16:50.871Z,79.00
2017-05-12T00:19:19.882Z,79.10
2017-05-12T00:21:48.521Z,79.30
2017-05-12T00:24:17.282Z,78.90
2017-05-12T00:26:45.923Z,79.40
2017-05-12T00:29:14.166Z,79.30
2017-05-12T00:31:42.829Z,79.20
2017-05-12T00:34:11.475Z,79.20
2017-05-12T00:36:40.112Z,79.30
2017-05-12T00:39:08.880Z,79.90
2017-05-12T00:41:37.524Z,80.00
2017-05-12T00:44:06.157Z,79.80
2017-05-12T00:46:34.830Z,80.60
2017-05-12T00:49:03.474Z,80.50
2017-05-12T00:51:32.508Z,81.60
2017-05-12T00:54:01.179Z,81.50
2017-05-12T00:56:29.809Z,82.00
2017-05-12T00:58:58.053Z,82.00
2017-05-12T01:01:26.313Z,82.60
2017-05-12T01:03:54.958Z,83.50
2017-05-12T01:06:23.605Z,83.50
2017-05-12T01:08:52.274Z,82.70
2017-05-12T01:11:20.907Z,83.00
2017-05-12T01:13:49.542Z,82.30
2017-05-12T01:16:18.214Z,83.10
2017-05-12T01:18:46.842Z,82.80
2017-05-12T01:21:15.077Z,82.80
2017-05-12T01:23:44.111Z,83.00
2017-05-12T01:26:12.749Z,82.80
2017-05-12T01:28:41.389Z,82.90
2017-05-12T01:31:10.259Z,83.30
2017-05-12T01:33:39.284Z,82.80
2017-05-12T01:36:07.917Z,82.90
2017-05-12T01:38:36.191Z,82.90
2017-05-12T01:41:05.202Z,82.00
2017-05-12T01:43:33.852Z,82.40
2017-05-12T01:46:02.651Z,82.70
2017-05-12T01:48:31.288Z,82.30
2017-05-12T01:50:59.927Z,82.30
2017-05-12T01:53:29.129Z,82.30
2017-05-12T01:55:58.141Z,82.30
2017-05-12T01:58:26.395Z,82.30
2017-05-12T02:00:55.433Z,82.90
2017-05-12T02:03:24.079Z,82.40
2017-05-12T02:05:52.726Z,82.70
2017-05-12T02:08:21.741Z,82.40
2017-05-12T02:10:50.754Z,83.10
2017-05-12T02:13:19.415Z,83.00
2017-05-12T02:15:48.460Z,83.30
2017-05-12T02:18:16.702Z,83.40
2017-05-12T02:20:44.954Z,83.30
2017-05-12T02:23:13.992Z,83.40
2017-05-12T02:25:42.642Z,83.90
2017-05-12T02:28:10.896Z,83.90
2017-05-12T02:30:40.203Z,84.00
2017-05-12T02:33:09.243Z,83.90
2017-05-12T02:35:37.882Z,83.90
2017-05-12T02:38:06.157Z,83.90
2017-05-12T02:40:34.802Z,83.90
2017-05-12T02:43:03.457Z,83.60
2017-05-12T02:45:32.131Z,83.70
2017-05-12T02:48:00.781Z,83.80
2017-05-12T02:50:29.805Z,83.20
2017-05-12T02:52:58.479Z,83.30
2017-05-12T02:55:27.124Z,83.20
2017-05-12T02:57:56.153Z,83.40
2017-05-12T03:00:24.825Z,83.20
2017-05-12T03:02:53.484Z,82.70
2017-05-12T03:05:22.131Z,83.00
2017-05-12T03:07:50.883Z,83.00
2017-05-12T03:10:19.546Z,82.60
2017-05-12T03:12:48.567Z,82.60
2017-05-12T03:15:17.247Z,82.70
2017-05-12T03:17:45.893Z,82.70
2017-05-12T03:20:15.367Z,82.60
2017-05-12T03:22:44.310Z,82.90
2017-05-12T03:25:12.966Z,82.70
2017-05-12T03:27:41.450Z,82.70
2017-05-12T03:30:10.106Z,82.10
2017-05-12T03:32:38.751Z,82.10
2017-05-12T03:35:07.668Z,82.40
2017-05-12T03:37:36.340Z,82.60
2017-05-12T03:40:04.987Z,82.20
2017-05-12T03:42:34.011Z,81.90
2017-05-12T03:45:02.679Z,81.90
2017-05-12T03:47:31.334Z,82.00
2017-05-12T03:50:00.362Z,82.10
2017-05-12T03:52:29.338Z,82.10
2017-05-12T03:54:58.357Z,81.70
2017-05-12T03:57:26.605Z,81.70
2017-05-12T03:59:54.990Z,81.70
2017-05-12T04:02:24.282Z,81.70
2017-05-12T04:04:52.933Z,81.30
2017-05-12T04:07:21.846Z,81.30
2017-05-12T04:09:50.493Z,81.60
2017-05-12T04:12:18.749Z,81.60
2017-05-12T04:14:47.418Z,81.90
2017-05-12T04:17:16.063Z,82.00
2017-05-12T04:19:45.476Z,82.00
2017-05-12T04:22:14.667Z,82.40
2017-05-12T04:24:43.313Z,81.90
2017-05-12T04:27:11.964Z,81.80
2017-05-12T04:29:40.922Z,82.20
2017-05-12T04:32:09.645Z,82.30
2017-05-12T04:34:38.272Z,82.20
2017-05-12T04:37:06.938Z,82.50
2017-05-12T04:39:35.595Z,82.60
2017-05-12T04:42:04.243Z,82.70
2017-05-12T04:44:32.713Z,82.70
2017-05-12T04:47:01.732Z,82.60
2017-05-12T04:49:29.989Z,82.60
2017-05-12T04:51:58.671Z,82.60
2017-05-12T04:54:27.328Z,82.80
2017-05-12T04:56:55.970Z,82.90
2017-05-12T04:59:24.655Z,82.60
2017-05-12T05:01:52.915Z,82.60
2017-05-12T05:04:21.570Z,82.50
2017-05-12T05:06:50.781Z,82.30
2017-05-12T05:09:19.428Z,82.60
2017-05-12T05:11:47.693Z,82.60
2017-05-12T05:14:16.450Z,82.30
2017-05-12T05:16:45.103Z,82.20
2017-05-12T05:19:13.764Z,82.60
2017-05-12T05:21:43.090Z,82.20
2017-05-12T05:24:11.741Z,82.50
2017-05-12T05:26:39.997Z,82.50
2017-05-12T05:29:08.739Z,81.90
2017-05-12T05:31:37.385Z,81.80
2017-05-12T05:34:06.431Z,81.80
2017-05-12T05:36:35.600Z,81.70
2017-05-12T05:39:03.846Z,81.70
2017-05-12T05:41:32.895Z,80.60
2017-05-12T05:44:01.954Z,80.40
2017-05-12T05:46:30.605Z,80.70
2017-05-12T05:48:58.867Z,80.70
2017-05-12T05:51:27.389Z,81.20
2017-05-12T05:53:56.046Z,80.70
2017-05-12T05:56:24.708Z,79.80
2017-05-12T05:58:53.354Z,80.00
2017-05-12T06:01:22.012Z,80.00
2017-05-12T06:03:51.050Z,80.70
2017-05-12T06:06:19.707Z,80.60
2017-05-12T06:08:48.358Z,80.90
2017-05-12T06:11:17.259Z,80.70
2017-05-12T06:13:46.290Z,80.30
2017-05-12T06:16:14.945Z,80.80
2017-05-12T06:18:44.021Z,80.50
2017-05-12T06:21:13.033Z,80.40
2017-05-12T06:23:41.706Z,80.30
2017-05-12T06:26:11.021Z,80.20
2017-05-12T06:28:39.277Z,80.20
2017-05-12T06:31:08.300Z,79.80
2017-05-12T06:33:36.976Z,79.60
2017-05-12T06:36:05.632Z,79.70
2017-05-12T06:38:34.656Z,79.20
2017-05-12T06:41:03.584Z,79.20
2017-05-12T06:43:32.237Z,79.10
2017-05-12T06:46:00.486Z,79.10
2017-05-12T06:48:29.482Z,79.00
2017-05-12T06:50:58.140Z,79.30
2017-05-12T06:53:27.181Z,79.10
2017-05-12T06:55:55.878Z,79.50
2017-05-12T06:58:24.543Z,79.10
2017-05-12T07:00:53.019Z,79.10
2017-05-12T07:03:21.265Z,79.40
2017-05-12T07:05:50.278Z,79.70
2017-05-12T07:08:18.948Z,79.80
2017-05-12T07:10:47.226Z,79.80
2017-05-12T07:13:15.893Z,80.20
2017-05-12T07:15:44.915Z,80.50
2017-05-12T07:18:13.831Z,80.50
2017-05-12T07:20:42.102Z,80.50
2017-05-12T07:23:10.737Z,80.50
2017-05-12T07:25:39.414Z,80.20
2017-05-12T07:28:08.448Z,80.40
2017-05-12T07:30:37.184Z,80.80
2017-05-12T07:33:06.241Z,80.40
2017-05-12T07:35:34.890Z,80.70
2017-05-12T07:38:03.566Z,80.80
2017-05-12T07:40:31.952Z,80.80
2017-05-12T07:43:00.204Z,80.90
2017-05-12T07:45:29.222Z,81.90
2017-05-12T07:47:57.916Z,82.10
2017-05-12T07:50:26.576Z,82.60
2017-05-12T07:52:55.231Z,83.40
2017-05-12T07:55:24.154Z,83.20
2017-05-12T07:57:52.801Z,83.10
2017-05-12T08:00:21.824Z,83.00
2017-05-12T08:02:50.103Z,83.00
2017-05-12T08:05:18.750Z,83.80
2017-05-12T08:07:47.993Z,84.30
2017-05-12T08:10:16.989Z,84.30
2017-05-12T08:12:45.635Z,83.20
2017-05-12T08:15:13.890Z,83.20
2017-05-12T08:17:42.591Z,84.10
2017-05-12T08:20:11.628Z,83.70
2017-05-12T08:22:40.293Z,84.60
2017-05-12T08:25:09.281Z,84.20
2017-05-12T08:27:37.945Z,83.70
2017-05-12T08:30:06.976Z,84.60
2017-05-12T08:32:35.744Z,84.60
2017-05-12T08:35:04.402Z,84.50
2017-05-12T08:37:33.423Z,83.80
2017-05-12T08:40:02.297Z,84.10
2017-05-12T08:42:31.952Z,84.00
2017-05-12T08:45:00.616Z,84.50
2017-05-12T08:47:29.484Z,84.90
2017-05-12T08:49:58.145Z,84.60
2017-05-12T08:52:27.172Z,84.70
2017-05-12T08:54:56.134Z,85.00
2017-05-12T08:57:24.786Z,84.10
2017-05-12T08:59:53.452Z,83.70
2017-05-12T09:02:22.395Z,84.40
2017-05-12T09:04:51.046Z,84.10
2017-05-12T09:07:19.302Z,84.10
2017-05-12T09:09:48.229Z,84.30
2017-05-12T09:12:17.260Z,84.60
2017-05-12T09:14:45.954Z,84.80
2017-05-12T09:17:14.626Z,84.20
2017-05-12T09:19:43.286Z,84.50
2017-05-12T09:22:11.941Z,84.10
2017-05-12T09:24:40.898Z,83.60
2017-05-12T09:27:09.558Z,83.70
2017-05-12T09:29:38.229Z,84.20
2017-05-12T09:32:06.972Z,83.40
2017-05-12T09:34:35.648Z,82.50
2017-05-12T09:37:04.300Z,82.10
2017-05-12T09:39:32.958Z,82.10
2017-05-12T09:42:01.658Z,81.00
2017-05-12T09:44:30.334Z,81.50
2017-05-12T09:46:59.021Z,80.80
2017-05-12T09:49:27.715Z,80.50
2017-05-12T09:51:56.446Z,81.30
2017-05-12T09:54:25.346Z,80.80
2017-05-12T09:56:53.980Z,80.10
2017-05-12T09:59:22.230Z,80.10
2017-05-12T10:01:50.910Z,78.30
2017-05-12T10:04:19.586Z,78.70
2017-05-12T10:06:48.599Z,78.30
2017-05-12T10:09:17.453Z,77.40
2017-05-12T10:11:45.682Z,77.40
2017-05-12T10:14:14.361Z,77.40
2017-05-12T10:16:42.639Z,77.40
2017-05-12T10:19:10.915Z,76.00
2017-05-12T10:21:39.168Z,76.30
2017-05-12T10:24:08.215Z,72.50
2017-05-12T10:26:37.264Z,71.90
2017-05-12T10:29:05.531Z,71.90
2017-05-12T10:31:34.210Z,70.90
2017-05-12T10:34:02.868Z,71.90
2017-05-12T10:36:31.877Z,70.40
2017-05-12T10:39:00.645Z,70.60
2017-05-12T10:41:29.680Z,69.60
2017-05-12T10:43:58.516Z,70.10
2017-05-12T10:46:28.474Z,68.60
2017-05-12T10:48:56.725Z,68.60
2017-05-12T10:51:24.984Z,67.60
2017-05-12T10:53:54.397Z,66.60
2017-05-12T10:56:23.067Z,66.60
2017-05-12T10:58:52.107Z,64.90
2017-05-12T11:01:20.788Z,65.90
2017-05-12T11:03:49.434Z,65.80
2017-05-12T11:06:18.104Z,65.50
2017-05-12T11:08:46.378Z,65.50
2017-05-12T11:11:15.399Z,64.50
2017-05-12T11:13:44.061Z,64.80
2017-05-12T11:16:13.109Z,65.20
2017-05-12T11:18:41.761Z,66.60
2017-05-12T11:21:10.018Z,66.60
2017-05-12T11:23:38.881Z,68.00
2017-05-12T11:26:07.548Z,68.20
2017-05-12T11:28:36.203Z,67.30
2017-05-12T11:31:05.066Z,67.90
2017-05-12T11:33:33.717Z,67.40
2017-05-12T11:36:01.965Z,67.40
2017-05-12T11:38:30.812Z,67.90
2017-05-12T11:40:59.628Z,68.40
2017-05-12T11:43:28.326Z,66.90
2017-05-12T11:45:57.178Z,67.20
2017-05-12T11:48:25.437Z,67.20
2017-05-12T11:50:53.685Z,66.60
2017-05-12T11:53:22.486Z,68.30
2017-05-12T11:55:51.543Z,68.20
2017-05-12T11:58:20.188Z,68.20
2017-05-12T12:00:48.655Z,68.20
2017-05-12T12:03:17.307Z,68.60
2017-05-12T12:05:45.964Z,67.80
2017-05-12T12:08:15.176Z,67.60
2017-05-12T12:10:43.924Z,67.90
2017-05-12T12:13:12.571Z,67.10
2017-05-12T12:15:41.648Z,66.70
2017-05-12T12:18:10.301Z,66.70
2017-05-12T12:20:38.633Z,66.70
2017-05-12T12:23:07.680Z,65.80
2017-05-12T12:25:36.374Z,64.80
2017-05-12T12:28:05.075Z,65.70
2017-05-12T12:30:34.061Z,65.70
2017-05-12T12:33:02.696Z,66.00
2017-05-12T12:35:31.359Z,65.30
2017-05-12T12:38:00.487Z,65.70
2017-05-12T12:40:29.134Z,65.70
2017-05-12T12:42:57.787Z,65.50
2017-05-12T12:45:26.470Z,65.80
2017-05-12T12:47:55.125Z,65.60
2017-05-12T12:50:23.785Z,64.40
2017-05-12T12:52:52.461Z,64.60
2017-05-12T12:55:21.106Z,64.10
2017-05-12T12:57:49.770Z,64.30
2017-05-12T13:00:19.018Z,64.20
2017-05-12T13:02:47.271Z,64.20
2017-05-12T13:05:15.537Z,62.90
2017-05-12T13:07:44.364Z,61.20
2017-05-12T13:10:13.010Z,61.50
2017-05-12T13:12:42.035Z,60.80
2017-05-12T13:15:10.306Z,60.80
2017-05-12T13:17:39.019Z,60.70
2017-05-12T13:20:07.701Z,60.90
2017-05-12T13:22:36.217Z,60.90
2017-05-12T13:25:04.490Z,59.70
2017-05-12T13:27:33.139Z,58.70
2017-05-12T13:30:01.409Z,58.70
2017-05-12T13:32:30.063Z,58.40
2017-05-12T13:34:58.727Z,57.70
2017-05-12T13:37:28.038Z,57.60
2017-05-12T13:39:57.274Z,56.60
2017-05-12T13:42:25.897Z,54.00
2017-05-12T13:44:55.394Z,54.00
2017-05-12T13:47:24.049Z,53.50
2017-05-12T13:49:52.698Z,54.20
2017-05-12T13:52:21.388Z,53.60
2017-05-12T13:54:50.057Z,52.80
2017-05-12T13:57:18.721Z,53.40
2017-05-12T13:59:48.632Z,51.40
2017-05-12T14:02:17.898Z,51.00
2017-05-12T14:04:46.555Z,50.60
2017-05-12T14:07:15.317Z,51.40
2017-05-12T14:09:43.973Z,52.30
2017-05-12T14:12:12.653Z,52.80
2017-05-12T14:14:41.186Z,52.80
2017-05-12T14:17:09.827Z,55.50
2017-05-12T14:19:38.478Z,55.40
2017-05-12T14:22:07.150Z,56.90
2017-05-12T14:24:35.401Z,56.90
2017-05-12T14:27:04.065Z,57.40
2017-05-12T14:29:35.248Z,58.10
2017-05-12T14:32:03.906Z,58.60
2017-05-12T14:34:32.594Z,59.00
2017-05-12T14:37:01.916Z,58.20
2017-05-12T14:39:30.577Z,59.30
2017-05-12T14:41:59.673Z,59.30
2017-05-12T14:44:41.295Z,58.70
2017-05-12T14:47:09.947Z,58.90
2017-05-12T14:49:38.608Z,57.70
2017-05-12T14:52:07.645Z,57.50
2017-05-12T14:54:35.844Z,58.40
2017-05-12T14:57:04.509Z,59.40
2017-05-12T14:59:33.183Z,60.80
2017-05-12T15:02:02.427Z,62.10
2017-05-12T15:04:31.462Z,63.00
2017-05-12T15:06:59.741Z,63.00
2017-05-12T15:09:29.380Z,62.30
2017-05-12T15:11:58.038Z,62.40
2017-05-12T15:14:27.072Z,62.50
2017-05-12T15:16:55.738Z,62.80
2017-05-12T15:19:24.393Z,63.10
2017-05-12T15:21:53.316Z,62.40
2017-05-12T15:24:23.336Z,62.80
2017-05-12T15:26:51.987Z,63.80
2017-05-12T15:29:20.649Z,64.40
2017-05-12T15:31:49.281Z,64.40
2017-05-12T15:34:17.934Z,64.80
2017-05-12T15:36:50.809Z,64.80
2017-05-12T15:39:19.358Z,64.80
2017-05-12T15:41:48.011Z,65.50
2017-05-12T15:44:16.654Z,66.00
2017-05-12T15:46:45.604Z,66.20
2017-05-12T15:49:14.298Z,67.20
2017-05-12T15:51:43.843Z,67.50
2017-05-12T15:54:12.789Z,68.10
2017-05-12T15:56:42.007Z,67.60
2017-05-12T15:59:10.654Z,68.30
2017-05-12T16:01:39.696Z,68.20
2017-05-12T16:04:09.724Z,68.60
2017-05-12T16:06:39.529Z,69.30
2017-05-12T16:09:08.372Z,69.60
2017-05-12T16:11:37.036Z,69.30
2017-05-12T16:14:05.704Z,69.30
2017-05-12T16:16:34.401Z,69.60
2017-05-12T16:19:03.043Z,69.50
2017-05-12T16:21:31.302Z,69.50
2017-05-12T16:23:59.969Z,70.00
2017-05-12T16:26:29.393Z,69.80
2017-05-12T16:28:58.043Z,70.30
2017-05-12T16:31:27.099Z,70.20
2017-05-12T16:33:56.986Z,70.10
2017-05-12T16:36:25.644Z,70.20
2017-05-12T16:38:54.890Z,69.70
2017-05-12T16:41:24.164Z,69.70
2017-05-12T16:43:52.822Z,70.20
2017-05-12T16:46:21.797Z,70.20
2017-05-12T16:48:50.833Z,70.40
2017-05-12T16:51:19.480Z,69.70
2017-05-12T16:53:48.161Z,70.00
2017-05-12T16:56:16.806Z,70.50
2017-05-12T16:58:45.694Z,70.70
2017-05-12T17:01:14.371Z,70.70
2017-05-12T17:03:43.017Z,71.00
2017-05-12T17:06:11.681Z,70.90
2017-05-12T17:08:40.590Z,71.00
2017-05-12T17:11:09.247Z,70.70
2017-05-12T17:13:37.909Z,70.80
2017-05-12T17:16:06.205Z,70.80
2017-05-12T17:18:35.239Z,70.80
2017-05-12T17:21:04.053Z,71.00
2017-05-12T17:23:32.736Z,70.80
2017-05-12T17:26:02.544Z,70.90
2017-05-12T17:28:31.892Z,71.30
2017-05-12T17:31:00.586Z,71.30
2017-05-12T17:33:29.246Z,71.30
2017-05-12T17:35:57.515Z,71.30
2017-05-12T17:38:26.828Z,71.30
2017-05-12T17:40:55.856Z,71.70
2017-05-12T17:43:24.685Z,71.80
2017-05-12T17:45:53.604Z,72.20
2017-05-12T17:48:22.272Z,71.90
2017-05-12T17:50:51.300Z,72.20
2017-05-12T17:53:20.173Z,72.80
2017-05-12T17:55:48.848Z,73.10
2017-05-12T17:58:17.513Z,73.00
2017-05-12T18:00:47.800Z,72.70
2017-05-12T18:03:16.451Z,72.60
2017-05-12T18:05:45.368Z,72.80
2017-05-12T18:08:14.173Z,73.20
2017-05-12T18:10:42.822Z,73.30
2017-05-12T18:13:11.671Z,73.60
2017-05-12T18:15:40.808Z,73.80
2017-05-12T18:18:09.950Z,73.70
2017-05-12T18:20:39.198Z,73.70
2017-05-12T18:23:08.055Z,74.20
2017-05-12T18:25:36.927Z,74.40
2017-05-12T18:28:05.186Z,74.40
2017-05-12T18:30:34.715Z,74.30
2017-05-12T18:33:04.310Z,74.30
2017-05-12T18:35:32.581Z,74.40
2017-05-12T18:38:01.726Z,74.90
2017-05-12T18:40:30.365Z,75.60
2017-05-12T18:43:00.010Z,80.70
2017-05-12T18:45:28.704Z,83.50
2017-05-12T18:47:57.970Z,84.50
2017-05-12T18:50:26.629Z,85.90
2017-05-12T18:52:55.789Z,84.30
2017-05-12T18:55:26.209Z,84.10
2017-05-12T18:57:54.994Z,85.00
2017-05-12T19:00:23.655Z,87.30
2017-05-12T19:02:52.323Z,86.40
2017-05-12T19:05:21.867Z,87.00
2017-05-12T19:07:50.586Z,86.50
2017-05-12T19:10:19.328Z,86.50
2017-05-12T19:12:48.196Z,87.40
2017-05-12T19:15:17.115Z,86.50
2017-05-12T19:17:45.788Z,87.10
2017-05-12T19:20:14.641Z,87.40
2017-05-12T19:22:43.290Z,86.20
2017-05-12T19:25:11.562Z,86.20
2017-05-12T19:27:40.561Z,86.30
2017-05-12T19:30:09.202Z,85.30
2017-05-12T19:32:37.864Z,86.20
2017-05-12T19:35:06.863Z,86.20
2017-05-12T19:37:35.521Z,86.50
2017-05-12T19:40:04.182Z,86.30
2017-05-12T19:42:32.866Z,86.40
2017-05-12T19:45:01.126Z,86.30
2017-05-12T19:47:29.780Z,85.90
2017-05-12T19:49:58.653Z,86.50
2017-05-12T19:52:28.659Z,86.30
2017-05-12T19:54:58.971Z,85.80
2017-05-12T19:57:28.005Z,86.10
2017-05-12T19:59:56.952Z,85.70
2017-05-12T20:02:25.216Z,85.80
2017-05-12T20:04:54.256Z,86.80
2017-05-12T20:07:23.164Z,86.30
2017-05-12T20:09:51.849Z,86.70
2017-05-12T20:12:20.501Z,86.10
2017-05-12T20:14:49.164Z,85.90
2017-05-12T20:17:18.573Z,85.70
2017-05-12T20:19:47.228Z,86.50
2017-05-12T20:22:16.186Z,86.70
2017-05-12T20:24:45.045Z,86.70
2017-05-12T20:27:13.283Z,86.70
2017-05-12T20:29:42.302Z,86.90
2017-05-12T20:32:11.007Z,86.80
2017-05-12T20:34:39.673Z,86.20
2017-05-12T20:37:08.336Z,86.50
2017-05-12T20:39:39.056Z,86.20
2017-05-12T20:42:08.066Z,86.00
2017-05-12T20:44:36.709Z,86.30
2017-05-12T20:47:05.481Z,86.00
2017-05-12T20:52:07.850Z,86.00
2017-05-12T20:54:37.169Z,86.60
2017-05-12T20:57:05.823Z,86.70
2017-05-12T20:59:34.624Z,86.80
2017-05-12T21:02:03.507Z,86.90
2017-05-12T21:04:32.140Z,87.00
2017-05-12T21:07:00.777Z,86.90
2017-05-12T21:09:30.698Z,87.10
2017-05-12T21:11:59.347Z,87.20
2017-05-12T21:14:28.041Z,87.50
2017-05-12T21:16:56.684Z,87.40
2017-05-12T21:19:25.332Z,87.40
2017-05-12T21:21:54.277Z,87.10
2017-05-12T21:24:23.305Z,87.30
2017-05-12T21:26:52.622Z,87.10
2017-05-12T21:29:21.391Z,86.80
2017-05-12T21:31:50.047Z,86.30
2017-05-12T21:34:18.696Z,87.00
2017-05-12T21:36:47.503Z,87.00
2017-05-12T21:39:16.520Z,87.10
2017-05-12T21:41:45.174Z,87.10
2017-05-12T21:44:14.210Z,87.00
2017-05-12T21:46:42.877Z,87.20
2017-05-12T21:49:11.556Z,87.10
2017-05-12T21:51:40.507Z,87.30
2017-05-12T21:54:09.164Z,87.30
2017-05-12T21:56:37.994Z,87.50
2017-05-12T21:59:06.709Z,87.30
2017-05-12T22:01:35.354Z,87.80
2017-05-12T22:04:04.021Z,87.60
2017-05-12T22:06:32.936Z,87.60
2017-05-12T22:09:01.189Z,87.60
2017-05-12T22:11:29.868Z,87.80
2017-05-12T22:13:58.537Z,87.70
2017-05-12T22:16:27.194Z,88.00
2017-05-12T22:18:55.853Z,88.20
2017-05-12T22:21:24.528Z,88.00
2017-05-12T22:23:52.796Z,87.90
2017-05-12T22:26:21.040Z,87.90
2017-05-12T22:28:50.083Z,87.70
2017-05-12T22:31:18.749Z,87.70
2017-05-12T22:33:47.763Z,87.60
2017-05-12T22:36:16.432Z,87.90
2017-05-12T22:38:45.460Z,87.70
2017-05-12T22:41:14.109Z,87.70
2017-05-12T22:43:42.769Z,87.60
2017-05-12T22:46:11.022Z,87.60
2017-05-12T22:48:39.678Z,87.50
2017-05-12T22:51:08.345Z,87.60
2017-05-12T22:53:36.598Z,87.60
2017-05-12T22:56:05.614Z,87.60
2017-05-12T22:58:34.311Z,87.40
2017-05-12T23:01:02.954Z,87.40
2017-05-12T23:03:31.210Z,87.30
2017-05-12T23:05:59.502Z,87.40
2017-05-12T23:08:28.524Z,87.20
2017-05-12T23:10:56.773Z,87.20
2017-05-12T23:13:26.077Z,87.70
2017-05-12T23:15:54.902Z,87.40
2017-05-12T23:18:23.544Z,87.50
2017-05-12T23:20:52.210Z,86.90
2017-05-12T23:23:20.460Z,86.90
2017-05-12T23:25:50.100Z,87.20
2017-05-12T23:28:18.381Z,87.20
2017-05-12T23:30:47.393Z,87.40
2017-05-12T23:33:16.042Z,87.00
2017-05-12T23:35:45.087Z,86.80
2017-05-12T23:38:13.734Z,87.20
2017-05-12T23:40:42.750Z,87.50
2017-05-12T23:43:11.418Z,87.10
2017-05-12T23:45:40.074Z,87.20
2017-05-12T23:48:09.326Z,87.10
2017-05-12T23:50:38.000Z,87.30
2017-05-12T23:53:06.646Z,87.30
2017-05-12T23:55:35.667Z,87.20
2017-05-12T23:58:04.225Z,87.20
